createdAt,value
2019-04-27T00:00:36.400Z,11.17
2019-04-27T00:03:13.806Z,11.07
2019-04-27T00:05:50.601Z,11.17
2019-04-27T00:08:39.203Z,11.19
2019-04-27T00:11:22.670Z,11.19
2019-04-27T00:13:53.609Z,11.08
2019-04-27T00:16:46.999Z,11.15
2019-04-27T00:19:31.812Z,11.11
2019-04-27T00:22:06.314Z,11.17
2019-04-27T00:24:35.984Z,11.22
2019-04-27T00:27:06.082Z,11.08
2019-04-27T00:29:35.477Z,10.99
2019-04-27T00:32:05.509Z,10.90
2019-04-27T00:34:35.460Z,10.96
2019-04-27T00:37:06.588Z,10.86
2019-04-27T00:39:37.791Z,10.69
2019-04-27T00:42:07.664Z,10.90
2019-04-27T00:44:37.055Z,10.72
2019-04-27T00:47:07.889Z,10.90
2019-04-27T00:49:37.268Z,10.80
2019-04-27T00:52:06.700Z,10.58
2019-04-27T00:54:36.728Z,10.63
2019-04-27T00:57:24.509Z,10.60
2019-04-27T01:00:05.162Z,10.45
2019-04-27T01:02:45.199Z,10.46
2019-04-27T01:05:16.560Z,10.38
2019-04-27T01:07:46.159Z,10.37
2019-04-27T01:10:15.759Z,10.29
2019-04-27T01:12:45.325Z,10.38
2019-04-27T01:15:15.287Z,10.19
2019-04-27T01:17:44.753Z,10.22
2019-04-27T01:20:14.145Z,10.14
2019-04-27T01:22:43.920Z,10.11
2019-04-27T01:25:13.771Z,9.96
2019-04-27T01:28:01.306Z,10.15
2019-04-27T01:30:39.200Z,10.02
2019-04-27T01:33:09.828Z,10.06
2019-04-27T01:35:39.271Z,10.06
2019-04-27T01:38:09.080Z,9.99
2019-04-27T01:40:38.819Z,9.94
2019-04-27T01:43:09.159Z,9.98
2019-04-27T01:45:40.247Z,10.16
2019-04-27T01:48:22.503Z,10.40
2019-04-27T01:50:40.784Z,10.51
2019-04-27T01:53:10.660Z,10.75
2019-04-27T01:55:40.804Z,10.81
2019-04-27T01:58:11.068Z,11.01
2019-04-27T02:00:45.001Z,10.98
2019-04-27T02:03:16.015Z,10.96
2019-04-27T02:05:53.153Z,10.96
2019-04-27T02:08:22.602Z,11.08
2019-04-27T02:10:52.856Z,11.12
2019-04-27T02:13:22.271Z,11.14
2019-04-27T02:15:51.646Z,11.06
2019-04-27T02:18:34.286Z,11.19
2019-04-27T02:20:52.084Z,11.08
2019-04-27T02:23:21.377Z,11.26
2019-04-27T02:25:50.753Z,11.35
2019-04-27T02:28:39.352Z,11.32
2019-04-27T02:31:19.490Z,11.25
2019-04-27T02:33:50.695Z,11.06
2019-04-27T02:36:20.338Z,11.08
2019-04-27T02:38:50.152Z,11.22
2019-04-27T02:41:19.990Z,11.23
2019-04-27T02:43:53.946Z,11.27
2019-04-27T02:46:23.363Z,11.28
2019-04-27T02:48:59.710Z,11.30
2019-04-27T02:51:25.299Z,11.30
2019-04-27T02:53:56.235Z,11.31
2019-04-27T02:56:26.630Z,11.27
2019-04-27T02:58:59.160Z,11.23
2019-04-27T03:01:30.590Z,11.29
2019-04-27T03:04:00.705Z,11.27
2019-04-27T03:06:30.413Z,11.23
2019-04-27T03:09:00.853Z,11.18
2019-04-27T03:11:31.769Z,11.12
2019-04-27T03:14:30.852Z,11.12
2019-04-27T03:16:52.176Z,11.13
2019-04-27T03:19:29.994Z,11.17
2019-04-27T03:22:09.454Z,10.82
2019-04-27T03:24:56.450Z,11.06
2019-04-27T03:27:30.120Z,11.18
2019-04-27T03:29:59.726Z,11.08
2019-04-27T03:32:31.347Z,11.06
2019-04-27T03:35:02.925Z,11.12
2019-04-27T03:37:31.734Z,11.07
2019-04-27T03:40:01.159Z,11.07
2019-04-27T03:42:31.623Z,11.15
2019-04-27T03:45:00.901Z,11.15
2019-04-27T03:47:30.773Z,11.11
2019-04-27T03:50:00.668Z,10.98
2019-04-27T03:52:31.702Z,10.96
2019-04-27T03:55:12.166Z,11.11
2019-04-27T03:58:00.262Z,11.08
2019-04-27T04:00:31.265Z,11.37
2019-04-27T04:03:00.783Z,11.43
2019-04-27T04:05:30.685Z,11.52
2019-04-27T04:08:00.577Z,11.69
2019-04-27T04:10:32.058Z,11.08
2019-04-27T04:13:12.592Z,10.56
2019-04-27T04:15:43.566Z,10.16
2019-04-27T04:18:13.627Z,10.00
2019-04-27T04:20:42.926Z,9.87
2019-04-27T04:23:12.226Z,9.72
2019-04-27T04:25:41.515Z,9.76
2019-04-27T04:28:11.196Z,9.69
2019-04-27T04:30:40.554Z,9.71
2019-04-27T04:33:10.480Z,9.80
2019-04-27T04:35:40.184Z,9.73
2019-04-27T04:38:10.396Z,10.00
2019-04-27T04:40:50.170Z,10.00
2019-04-27T04:43:20.433Z,10.18
2019-04-27T04:46:00.614Z,10.21
2019-04-27T04:48:30.347Z,10.07
2019-04-27T04:51:00.194Z,9.99
2019-04-27T04:53:30.080Z,10.03
2019-04-27T04:56:00.401Z,10.06
2019-04-27T04:58:30.003Z,9.98
2019-04-27T05:01:01.629Z,10.02
2019-04-27T05:03:30.654Z,10.01
2019-04-27T05:05:59.985Z,10.03
2019-04-27T05:08:29.313Z,10.00
2019-04-27T05:10:59.670Z,10.13
2019-04-27T05:13:29.494Z,9.95
2019-04-27T05:15:59.043Z,9.99
2019-04-27T05:18:29.309Z,10.13
2019-04-27T05:21:06.580Z,10.02
2019-04-27T05:23:35.877Z,10.01
2019-04-27T05:26:05.237Z,10.08
2019-04-27T05:28:34.820Z,10.22
2019-04-27T05:31:04.126Z,10.26
2019-04-27T05:33:33.631Z,10.60
2019-04-27T05:36:03.042Z,10.69
2019-04-27T05:38:32.371Z,10.61
2019-04-27T05:41:01.711Z,10.80
2019-04-27T05:43:49.037Z,10.63
2019-04-27T05:46:24.880Z,10.68
2019-04-27T05:48:54.758Z,10.88
2019-04-27T05:51:24.094Z,10.91
2019-04-27T05:53:53.417Z,10.94
2019-04-27T05:56:23.119Z,10.95
2019-04-27T05:58:52.475Z,10.89
2019-04-27T06:01:21.858Z,11.03
2019-04-27T06:03:51.439Z,11.05
2019-04-27T06:06:21.374Z,11.08
2019-04-27T06:08:50.696Z,11.04
2019-04-27T06:11:20.502Z,11.11
2019-04-27T06:13:50.301Z,11.05
2019-04-27T06:16:20.003Z,11.09
2019-04-27T06:18:49.678Z,11.00
2019-04-27T06:21:19.593Z,11.19
2019-04-27T06:23:49.175Z,11.08
2019-04-27T06:26:20.158Z,10.99
2019-04-27T06:28:50.474Z,11.24
2019-04-27T06:31:19.876Z,10.82
2019-04-27T06:33:49.697Z,10.76
2019-04-27T06:36:19.923Z,10.81
2019-04-27T06:38:49.460Z,10.86
2019-04-27T06:41:19.066Z,10.95
2019-04-27T06:43:49.505Z,11.09
2019-04-27T06:46:19.989Z,11.34
2019-04-27T06:48:49.641Z,11.21
2019-04-27T06:51:19.558Z,11.33
2019-04-27T06:53:49.487Z,11.43
2019-04-27T06:56:18.927Z,11.68
2019-04-27T06:58:49.165Z,11.64
2019-04-27T07:01:19.109Z,11.61
2019-04-27T07:03:48.753Z,11.61
2019-04-27T07:06:18.806Z,11.58
2019-04-27T07:08:49.839Z,11.54
2019-04-27T07:11:19.951Z,11.71
2019-04-27T07:13:49.803Z,11.68
2019-04-27T07:16:19.703Z,11.66
2019-04-27T07:18:50.428Z,11.98
2019-04-27T07:21:24.711Z,11.97
2019-04-27T07:23:59.807Z,12.28
2019-04-27T07:26:30.389Z,12.32
2019-04-27T07:28:59.983Z,12.08
2019-04-27T07:31:31.741Z,12.28
2019-04-27T07:34:00.684Z,11.98
2019-04-27T07:36:29.950Z,11.95
2019-04-27T07:38:59.990Z,11.69
2019-04-27T07:41:29.524Z,11.48
2019-04-27T07:44:03.728Z,11.48
2019-04-27T07:46:33.614Z,11.33
2019-04-27T07:49:03.222Z,11.14
2019-04-27T07:51:34.424Z,11.12
2019-04-27T07:54:03.714Z,11.04
2019-04-27T07:56:33.338Z,11.00
2019-04-27T07:59:02.707Z,10.98
2019-04-27T08:01:32.009Z,10.97
2019-04-27T08:04:01.455Z,10.93
2019-04-27T08:06:30.785Z,10.99
2019-04-27T08:09:00.093Z,11.03
2019-04-27T08:11:29.431Z,10.97
2019-04-27T08:13:58.946Z,10.98
2019-04-27T08:16:29.074Z,11.00
2019-04-27T08:19:00.007Z,10.99
2019-04-27T08:21:42.866Z,11.02
2019-04-27T08:24:00.873Z,11.08
2019-04-27T08:26:31.827Z,11.07
2019-04-27T08:29:02.768Z,11.08
2019-04-27T08:31:39.596Z,11.11
2019-04-27T08:34:10.738Z,11.12
2019-04-27T08:36:40.063Z,11.47
2019-04-27T08:39:10.326Z,11.47
2019-04-27T08:41:39.648Z,11.33
2019-04-27T08:44:09.846Z,11.76
2019-04-27T08:46:39.315Z,11.73
2019-04-27T08:49:10.221Z,11.56
2019-04-27T08:51:41.596Z,11.58
2019-04-27T08:54:11.722Z,11.59
2019-04-27T08:56:41.033Z,11.60
2019-04-27T08:59:10.865Z,11.75
2019-04-27T09:01:40.268Z,11.97
2019-04-27T09:04:11.330Z,11.80
2019-04-27T09:06:42.683Z,11.75
2019-04-27T09:09:16.915Z,11.74
2019-04-27T09:11:51.140Z,11.80
2019-04-27T09:14:31.425Z,11.72
2019-04-27T09:17:14.659Z,11.78
2019-04-27T09:19:45.603Z,11.75
2019-04-27T09:22:16.534Z,11.78
2019-04-27T09:24:46.284Z,11.71
2019-04-27T09:27:17.355Z,11.80
2019-04-27T09:29:46.880Z,11.88
2019-04-27T09:32:16.299Z,11.92
2019-04-27T09:34:46.707Z,11.98
2019-04-27T09:37:16.690Z,11.99
2019-04-27T09:39:46.196Z,11.99
2019-04-27T09:42:16.733Z,12.05
2019-04-27T09:44:47.679Z,12.08
2019-04-27T09:47:17.233Z,12.13
2019-04-27T09:49:46.729Z,12.22
2019-04-27T09:52:24.320Z,12.31
2019-04-27T09:54:48.148Z,12.27
2019-04-27T09:57:18.099Z,12.31
2019-04-27T09:59:48.127Z,12.28
2019-04-27T10:02:17.518Z,12.33
2019-04-27T10:04:46.995Z,12.39
2019-04-27T10:07:16.707Z,12.34
2019-04-27T10:09:47.506Z,12.33
2019-04-27T10:12:17.388Z,12.32
2019-04-27T10:14:47.650Z,12.09
2019-04-27T10:17:17.456Z,12.35
2019-04-27T10:19:47.001Z,12.40
2019-04-27T10:22:16.707Z,11.70
2019-04-27T10:24:45.999Z,11.00
2019-04-27T10:27:16.248Z,10.89
2019-04-27T10:29:46.752Z,10.55
2019-04-27T10:32:18.017Z,10.62
2019-04-27T10:34:47.423Z,10.51
2019-04-27T10:37:17.444Z,10.41
2019-04-27T10:39:46.748Z,10.27
2019-04-27T10:42:16.081Z,10.12
2019-04-27T10:44:46.295Z,9.64
2019-04-27T10:47:16.593Z,9.64
2019-04-27T10:49:48.313Z,9.67
2019-04-27T10:52:18.044Z,9.79
2019-04-27T10:54:47.445Z,9.79
2019-04-27T10:57:16.729Z,9.86
2019-04-27T10:59:46.466Z,9.60
2019-04-27T11:02:15.759Z,9.80
2019-04-27T11:04:49.546Z,9.80
2019-04-27T11:07:20.479Z,9.81
2019-04-27T11:09:49.862Z,9.91
2019-04-27T11:12:19.600Z,9.97
2019-04-27T11:14:48.877Z,10.02
2019-04-27T11:17:18.195Z,10.34
2019-04-27T11:19:47.860Z,10.25
2019-04-27T11:22:17.168Z,10.44
2019-04-27T11:24:47.893Z,10.31
2019-04-27T11:27:17.688Z,10.33
2019-04-27T11:29:47.099Z,10.38
2019-04-27T11:32:17.056Z,10.21
2019-04-27T11:35:05.739Z,10.28
2019-04-27T11:37:38.088Z,10.39
2019-04-27T11:40:10.805Z,10.14
2019-04-27T11:42:40.099Z,10.02
2019-04-27T11:45:10.119Z,9.78
2019-04-27T11:47:39.402Z,9.75
2019-04-27T11:50:09.735Z,9.80
2019-04-27T11:52:39.186Z,9.82
2019-04-27T11:55:09.578Z,9.82
2019-04-27T11:57:38.899Z,9.78
2019-04-27T12:00:13.787Z,9.96
2019-04-27T12:02:43.107Z,9.93
2019-04-27T12:05:12.834Z,10.36
2019-04-27T12:07:42.212Z,10.85
2019-04-27T12:10:12.565Z,10.74
2019-04-27T12:12:42.052Z,11.02
2019-04-27T12:15:12.554Z,11.20
2019-04-27T12:17:42.287Z,11.59
2019-04-27T12:20:11.984Z,11.46
2019-04-27T12:22:41.304Z,11.00
2019-04-27T12:25:11.526Z,10.96
2019-04-27T12:27:58.868Z,10.74
2019-04-27T12:30:33.073Z,10.70
2019-04-27T12:33:02.400Z,10.47
2019-04-27T12:35:31.967Z,10.35
2019-04-27T12:38:01.301Z,10.65
2019-04-27T12:40:30.583Z,10.64
2019-04-27T12:42:59.988Z,11.08
2019-04-27T12:45:30.058Z,11.22
2019-04-27T12:47:59.444Z,11.26
2019-04-27T12:50:29.362Z,10.62
2019-04-27T12:53:00.327Z,10.56
2019-04-27T12:55:46.580Z,10.93
2019-04-27T12:58:23.691Z,11.04
2019-04-27T13:00:54.774Z,10.74
2019-04-27T13:03:26.079Z,11.25
2019-04-27T13:05:55.708Z,10.99
2019-04-27T13:08:25.978Z,11.38
2019-04-27T13:10:57.292Z,11.64
2019-04-27T13:13:27.101Z,11.30
2019-04-27T13:15:56.569Z,12.21
2019-04-27T13:18:25.996Z,12.03
2019-04-27T13:20:56.793Z,12.09
2019-04-27T13:23:26.098Z,11.64
2019-04-27T13:25:56.476Z,11.83
2019-04-27T13:28:25.866Z,12.17
2019-04-27T13:30:55.949Z,12.79
2019-04-27T13:33:26.318Z,12.72
2019-04-27T13:35:55.808Z,13.11
2019-04-27T13:38:26.750Z,13.29
2019-04-27T13:41:06.825Z,13.18
2019-04-27T13:43:37.400Z,12.94
2019-04-27T13:46:09.601Z,13.08
2019-04-27T13:48:56.650Z,12.69
2019-04-27T13:51:33.500Z,12.95
2019-04-27T13:54:14.906Z,12.85
2019-04-27T13:56:34.492Z,12.92
2019-04-27T13:59:05.481Z,13.09
2019-04-27T14:01:36.150Z,13.21
2019-04-27T14:04:07.006Z,13.51
2019-04-27T14:06:36.959Z,13.95
2019-04-27T14:09:09.228Z,14.21
2019-04-27T14:11:39.423Z,14.78
2019-04-27T14:14:09.030Z,14.57
2019-04-27T14:16:39.251Z,13.27
2019-04-27T14:19:10.945Z,13.16
2019-04-27T14:21:39.745Z,13.09
2019-04-27T14:24:09.063Z,13.33
2019-04-27T14:26:38.676Z,12.85
2019-04-27T14:29:08.878Z,12.91
2019-04-27T14:31:39.664Z,13.20
2019-04-27T14:34:09.302Z,12.90
2019-04-27T14:36:40.627Z,12.84
2019-04-27T14:39:11.749Z,12.72
2019-04-27T14:41:41.081Z,12.90
2019-04-27T14:44:10.881Z,13.19
2019-04-27T14:46:40.246Z,12.73
2019-04-27T14:49:09.537Z,12.64
2019-04-27T14:51:40.147Z,12.56
2019-04-27T14:54:09.581Z,12.50
2019-04-27T14:56:39.187Z,12.05
2019-04-27T14:59:08.815Z,11.95
2019-04-27T15:01:40.092Z,11.72
2019-04-27T15:04:09.466Z,11.76
2019-04-27T15:06:39.249Z,12.07
2019-04-27T15:09:09.174Z,12.35
2019-04-27T15:11:40.655Z,12.69
2019-04-27T15:14:10.022Z,12.89
2019-04-27T15:16:42.232Z,12.78
2019-04-27T15:19:22.845Z,12.29
2019-04-27T15:21:58.878Z,12.40
2019-04-27T15:24:35.465Z,12.27
2019-04-27T15:27:07.024Z,12.72
2019-04-27T15:29:36.579Z,12.96
2019-04-27T15:32:24.077Z,12.97
2019-04-27T15:35:00.550Z,12.85
2019-04-27T15:37:43.732Z,12.74
2019-04-27T15:40:15.451Z,12.26
2019-04-27T15:42:53.234Z,12.21
2019-04-27T15:45:24.307Z,11.48
2019-04-27T15:47:55.776Z,10.72
2019-04-27T15:50:28.504Z,10.43
2019-04-27T15:52:56.108Z,10.32
2019-04-27T15:55:34.765Z,10.06
2019-04-27T15:57:56.683Z,9.97
2019-04-27T16:00:28.780Z,9.92
2019-04-27T16:02:58.478Z,10.06
2019-04-27T16:05:32.208Z,9.89
2019-04-27T16:08:05.489Z,9.89
2019-04-27T16:10:32.665Z,9.97
2019-04-27T16:13:06.317Z,10.01
2019-04-27T16:15:32.415Z,10.09
2019-04-27T16:18:01.744Z,10.23
2019-04-27T16:20:33.955Z,10.41
2019-04-27T16:23:04.223Z,10.43
2019-04-27T16:25:47.806Z,10.71
2019-04-27T16:28:14.836Z,10.97
2019-04-27T16:30:45.633Z,10.90
2019-04-27T16:33:15.446Z,10.97
2019-04-27T16:35:45.135Z,11.18
2019-04-27T16:38:21.599Z,10.96
2019-04-27T16:40:54.600Z,11.35
2019-04-27T16:43:23.911Z,11.41
2019-04-27T16:45:59.728Z,11.44
2019-04-27T16:48:28.008Z,11.25
2019-04-27T16:50:59.285Z,11.23
2019-04-27T16:53:30.029Z,11.14
2019-04-27T16:56:06.304Z,11.24
2019-04-27T16:58:39.492Z,11.05
2019-04-27T17:01:13.404Z,11.22
2019-04-27T17:03:43.189Z,11.08
2019-04-27T17:06:12.621Z,11.06
2019-04-27T17:08:42.014Z,11.11
2019-04-27T17:11:13.597Z,11.02
2019-04-27T17:13:48.399Z,11.17
2019-04-27T17:16:31.225Z,11.23
2019-04-27T17:19:04.945Z,11.09
2019-04-27T17:21:33.281Z,11.00
2019-04-27T17:24:04.007Z,10.92
2019-04-27T17:26:35.489Z,11.08
2019-04-27T17:29:09.699Z,11.06
2019-04-27T17:31:40.512Z,11.25
2019-04-27T17:34:09.858Z,11.21
2019-04-27T17:36:40.254Z,11.37
2019-04-27T17:39:11.625Z,11.29
2019-04-27T17:41:42.177Z,11.40
2019-04-27T17:44:12.786Z,11.32
2019-04-27T17:46:47.641Z,11.44
2019-04-27T17:49:13.990Z,11.35
2019-04-27T17:51:44.459Z,11.26
2019-04-27T17:54:14.187Z,11.21
2019-04-27T17:56:49.602Z,11.03
2019-04-27T17:59:17.062Z,11.20
2019-04-27T18:01:46.694Z,11.12
2019-04-27T18:04:16.011Z,11.13
2019-04-27T18:06:45.341Z,11.09
2019-04-27T18:09:16.398Z,11.29
2019-04-27T18:11:45.735Z,11.00
2019-04-27T18:14:15.194Z,11.11
2019-04-27T18:16:44.920Z,11.04
2019-04-27T18:19:18.634Z,10.83
2019-04-27T18:22:00.910Z,10.89
2019-04-27T18:24:31.974Z,10.79
2019-04-27T18:27:11.983Z,10.79
2019-04-27T18:29:41.423Z,10.64
2019-04-27T18:32:11.122Z,10.61
2019-04-27T18:34:40.500Z,10.55
2019-04-27T18:37:09.858Z,10.78
2019-04-27T18:39:40.975Z,10.77
2019-04-27T18:42:10.832Z,10.81
2019-04-27T18:44:40.241Z,10.64
2019-04-27T18:47:09.575Z,10.76
2019-04-27T18:50:07.363Z,10.60
2019-04-27T18:52:47.706Z,10.65
2019-04-27T18:55:18.522Z,10.60
2019-04-27T18:57:50.918Z,10.45
2019-04-27T19:00:20.542Z,10.47
2019-04-27T19:02:50.480Z,10.47
2019-04-27T19:05:20.607Z,10.37
2019-04-27T19:07:49.929Z,10.50
2019-04-27T19:10:19.491Z,10.59
2019-04-27T19:12:49.005Z,10.54
2019-04-27T19:15:18.699Z,10.80
2019-04-27T19:17:48.977Z,10.44
2019-04-27T19:20:18.865Z,10.74
2019-04-27T19:22:49.054Z,10.88
2019-04-27T19:25:39.014Z,10.83
2019-04-27T19:28:28.276Z,10.59
2019-04-27T19:31:14.140Z,10.45
2019-04-27T19:33:43.425Z,10.33
2019-04-27T19:36:12.737Z,10.09
2019-04-27T19:38:42.032Z,10.00
2019-04-27T19:41:11.425Z,9.98
2019-04-27T19:43:40.921Z,10.21
2019-04-27T19:46:10.469Z,10.49
2019-04-27T19:48:39.871Z,10.54
2019-04-27T19:51:09.688Z,10.51
2019-04-27T19:53:39.415Z,10.59
2019-04-27T19:56:08.964Z,10.67
2019-04-27T19:58:42.676Z,10.47
2019-04-27T20:01:14.697Z,10.58
2019-04-27T20:04:02.400Z,10.69
2019-04-27T20:06:31.850Z,10.49
2019-04-27T20:09:19.257Z,10.70
2019-04-27T20:11:48.640Z,10.68
2019-04-27T20:14:18.085Z,10.34
2019-04-27T20:16:47.950Z,10.58
2019-04-27T20:19:17.463Z,10.30
2019-04-27T20:21:46.900Z,9.99
2019-04-27T20:24:16.320Z,9.80
2019-04-27T20:26:45.983Z,9.67
2019-04-27T20:29:15.337Z,9.73
2019-04-27T20:31:44.650Z,10.00
2019-04-27T20:34:14.005Z,9.71
2019-04-27T20:36:43.698Z,9.57
2019-04-27T20:39:13.685Z,9.52
2019-04-27T20:41:43.186Z,9.50
2019-04-27T20:44:12.786Z,9.50
2019-04-27T20:46:42.389Z,9.54
2019-04-27T20:49:16.360Z,9.54
2019-04-27T20:51:52.885Z,9.57
2019-04-27T20:54:22.998Z,9.46
2019-04-27T20:56:53.562Z,9.46
2019-04-27T20:59:24.218Z,9.42
2019-04-27T21:01:53.818Z,9.44
2019-04-27T21:04:39.799Z,9.50
2019-04-27T21:07:11.117Z,9.47
2019-04-27T21:09:41.406Z,9.46
2019-04-27T21:12:11.198Z,9.48
2019-04-27T21:14:41.768Z,9.65
2019-04-27T21:17:11.754Z,9.45
2019-04-27T21:19:41.791Z,9.44
2019-04-27T21:22:11.177Z,9.40
2019-04-27T21:24:41.378Z,9.45
2019-04-27T21:27:12.921Z,9.48
2019-04-27T21:29:42.503Z,9.51
2019-04-27T21:32:12.448Z,9.69
2019-04-27T21:34:42.137Z,9.62
2019-04-27T21:37:12.034Z,9.57
2019-04-27T21:39:41.356Z,9.57
2019-04-27T21:42:11.169Z,9.47
2019-04-27T21:44:42.040Z,9.46
2019-04-27T21:47:11.609Z,9.41
2019-04-27T21:49:41.601Z,9.37
2019-04-27T21:52:15.613Z,9.27
2019-04-27T21:54:46.696Z,9.26
2019-04-27T21:57:17.482Z,9.27
2019-04-27T21:59:47.414Z,9.30
2019-04-27T22:02:18.061Z,9.31
2019-04-27T22:04:47.767Z,9.27
2019-04-27T22:07:17.323Z,9.30
2019-04-27T22:09:46.729Z,9.26
2019-04-27T22:12:16.150Z,9.22
2019-04-27T22:14:45.742Z,9.23
2019-04-27T22:17:15.132Z,9.24
2019-04-27T22:19:44.540Z,9.23
2019-04-27T22:22:15.623Z,9.25
2019-04-27T22:24:44.925Z,9.27
2019-04-27T22:27:14.559Z,9.23
2019-04-27T22:29:43.872Z,9.25
2019-04-27T22:32:15.703Z,9.18
2019-04-27T22:34:45.087Z,9.14
2019-04-27T22:37:14.396Z,9.14
2019-04-27T22:39:45.342Z,9.13
2019-04-27T22:42:32.944Z,9.13
2019-04-27T22:45:04.266Z,9.13
2019-04-27T22:47:33.901Z,9.12
2019-04-27T22:50:03.863Z,9.13
2019-04-27T22:52:33.175Z,9.13
2019-04-27T22:55:02.537Z,9.11
2019-04-27T22:57:33.501Z,9.16
2019-04-27T23:00:04.917Z,9.15
2019-04-27T23:02:35.850Z,9.14
2019-04-27T23:05:06.792Z,9.12
2019-04-27T23:07:36.167Z,9.09
2019-04-27T23:10:11.274Z,9.10
2019-04-27T23:12:41.956Z,9.10
2019-04-27T23:15:13.255Z,9.10
2019-04-27T23:17:44.276Z,9.05
2019-04-27T23:20:13.946Z,9.12
2019-04-27T23:22:43.317Z,9.08
2019-04-27T23:25:13.244Z,9.08
2019-04-27T23:27:42.607Z,9.10
2019-04-27T23:30:12.919Z,9.10
2019-04-27T23:32:51.448Z,9.07
2019-04-27T23:35:20.831Z,9.07
2019-04-27T23:37:50.783Z,9.04
2019-04-27T23:40:21.946Z,9.02
2019-04-27T23:42:51.749Z,9.01
2019-04-27T23:45:22.435Z,9.01
2019-04-27T23:47:52.058Z,8.98
2019-04-27T23:50:21.975Z,9.00
2019-04-27T23:52:58.896Z,9.00
2019-04-27T23:55:33.867Z,9.05
2019-04-27T23:58:03.481Z,9.02
